sensor_id;sensor_type;location;lat;lon;timestamp;temperature;humidity
2539;DHT22;1280;49.760;9.664;2023-03-04T00:01:11;3.60;64.70
2539;DHT22;1280;49.760;9.664;2023-03-04T00:03:39;3.50;64.80
2539;DHT22;1280;49.760;9.664;2023-03-04T00:06:08;3.50;64.90
2539;DHT22;1280;49.760;9.664;2023-03-04T00:08:36;3.50;65.00
2539;DHT22;1280;49.760;9.664;2023-03-04T00:11:04;3.50;65.00
2539;DHT22;1280;49.760;9.664;2023-03-04T00:13:32;3.50;65.00
2539;DHT22;1280;49.760;9.664;2023-03-04T00:16:00;3.50;65.00
2539;DHT22;1280;49.760;9.664;2023-03-04T00:18:28;3.50;65.10
2539;DHT22;1280;49.760;9.664;2023-03-04T00:20:56;3.50;65.00
2539;DHT22;1280;49.760;9.664;2023-03-04T00:23:26;3.50;65.00
2539;DHT22;1280;49.760;9.664;2023-03-04T00:25:59;3.40;65.00
2539;DHT22;1280;49.760;9.664;2023-03-04T00:28:27;3.40;64.90
2539;DHT22;1280;49.760;9.664;2023-03-04T00:30:55;3.30;65.00
2539;DHT22;1280;49.760;9.664;2023-03-04T00:33:23;3.30;65.00
2539;DHT22;1280;49.760;9.664;2023-03-04T00:35:51;3.30;65.10
2539;DHT22;1280;49.760;9.664;2023-03-04T00:38:19;3.30;65.00
2539;DHT22;1280;49.760;9.664;2023-03-04T00:40:49;3.20;64.80
2539;DHT22;1280;49.760;9.664;2023-03-04T00:43:17;3.10;64.80
2539;DHT22;1280;49.760;9.664;2023-03-04T00:45:45;3.00;64.80
2539;DHT22;1280;49.760;9.664;2023-03-04T00:48:15;3.00;64.80
2539;DHT22;1280;49.760;9.664;2023-03-04T00:50:43;2.90;64.90
2539;DHT22;1280;49.760;9.664;2023-03-04T00:53:11;2.80;65.10
2539;DHT22;1280;49.760;9.664;2023-03-04T00:55:39;2.90;65.30
2539;DHT22;1280;49.760;9.664;2023-03-04T00:58:09;2.80;65.20
2539;DHT22;1280;49.760;9.664;2023-03-04T01:00:36;2.80;65.10
2539;DHT22;1280;49.760;9.664;2023-03-04T01:03:05;2.70;65.20
2539;DHT22;1280;49.760;9.664;2023-03-04T01:05:33;2.70;65.40
2539;DHT22;1280;49.760;9.664;2023-03-04T01:08:02;2.70;65.40
2539;DHT22;1280;49.760;9.664;2023-03-04T01:10:31;2.70;65.40
2539;DHT22;1280;49.760;9.664;2023-03-04T01:12:59;2.70;65.30
2539;DHT22;1280;49.760;9.664;2023-03-04T01:15:29;2.70;65.30
2539;DHT22;1280;49.760;9.664;2023-03-04T01:17:56;2.60;65.20
2539;DHT22;1280;49.760;9.664;2023-03-04T01:20:24;2.60;65.20
2539;DHT22;1280;49.760;9.664;2023-03-04T01:22:52;2.50;65.30
2539;DHT22;1280;49.760;9.664;2023-03-04T01:25:20;2.50;65.60
2539;DHT22;1280;49.760;9.664;2023-03-04T01:27:48;2.60;65.70
2539;DHT22;1280;49.760;9.664;2023-03-04T01:30:18;2.70;65.70
2539;DHT22;1280;49.760;9.664;2023-03-04T01:32:48;2.70;65.60
2539;DHT22;1280;49.760;9.664;2023-03-04T01:35:17;2.60;65.40
2539;DHT22;1280;49.760;9.664;2023-03-04T01:37:45;2.50;65.50
2539;DHT22;1280;49.760;9.664;2023-03-04T01:40:13;2.50;65.60
2539;DHT22;1280;49.760;9.664;2023-03-04T01:42:42;2.50;65.50
2539;DHT22;1280;49.760;9.664;2023-03-04T01:45:12;2.40;65.60
2539;DHT22;1280;49.760;9.664;2023-03-04T01:47:43;2.40;65.80
2539;DHT22;1280;49.760;9.664;2023-03-04T01:50:20;2.40;65.90
2539;DHT22;1280;49.760;9.664;2023-03-04T01:52:48;2.40;66.00
2539;DHT22;1280;49.760;9.664;2023-03-04T01:55:19;2.50;66.10
2539;DHT22;1280;49.760;9.664;2023-03-04T01:57:48;2.50;65.80
2539;DHT22;1280;49.760;9.664;2023-03-04T02:00:21;2.50;65.80
2539;DHT22;1280;49.760;9.664;2023-03-04T02:02:52;2.40;66.00
2539;DHT22;1280;49.760;9.664;2023-03-04T02:05:22;2.50;66.10
2539;DHT22;1280;49.760;9.664;2023-03-04T02:07:52;2.50;66.10
2539;DHT22;1280;49.760;9.664;2023-03-04T02:10:21;2.50;66.00
2539;DHT22;1280;49.760;9.664;2023-03-04T02:12:50;2.50;65.80
2539;DHT22;1280;49.760;9.664;2023-03-04T02:15:19;2.40;65.70
2539;DHT22;1280;49.760;9.664;2023-03-04T02:17:47;2.20;65.60
2539;DHT22;1280;49.760;9.664;2023-03-04T02:20:29;2.10;65.70
2539;DHT22;1280;49.760;9.664;2023-03-04T02:23:03;2.10;65.80
2539;DHT22;1280;49.760;9.664;2023-03-04T02:25:38;2.00;65.90
2539;DHT22;1280;49.760;9.664;2023-03-04T02:28:11;2.00;65.90
2539;DHT22;1280;49.760;9.664;2023-03-04T02:30:39;2.00;66.20
2539;DHT22;1280;49.760;9.664;2023-03-04T02:33:13;2.00;66.20
2539;DHT22;1280;49.760;9.664;2023-03-04T02:35:42;2.00;66.50
2539;DHT22;1280;49.760;9.664;2023-03-04T02:38:11;2.10;66.50
2539;DHT22;1280;49.760;9.664;2023-03-04T02:40:42;2.10;66.60
2539;DHT22;1280;49.760;9.664;2023-03-04T02:43:15;2.10;66.60
2539;DHT22;1280;49.760;9.664;2023-03-04T02:45:45;2.20;66.60
2539;DHT22;1280;49.760;9.664;2023-03-04T02:48:17;2.20;66.70
2539;DHT22;1280;49.760;9.664;2023-03-04T02:50:47;2.20;66.90
2539;DHT22;1280;49.760;9.664;2023-03-04T02:53:17;2.30;67.00
2539;DHT22;1280;49.760;9.664;2023-03-04T02:55:47;2.40;67.10
2539;DHT22;1280;49.760;9.664;2023-03-04T02:58:18;2.40;67.10
2539;DHT22;1280;49.760;9.664;2023-03-04T03:00:46;2.50;67.20
2539;DHT22;1280;49.760;9.664;2023-03-04T03:03:14;2.50;67.20
2539;DHT22;1280;49.760;9.664;2023-03-04T03:05:43;2.60;67.20
2539;DHT22;1280;49.760;9.664;2023-03-04T03:08:11;2.60;67.20
2539;DHT22;1280;49.760;9.664;2023-03-04T03:10:39;2.60;67.20
2539;DHT22;1280;49.760;9.664;2023-03-04T03:13:08;2.60;67.30
2539;DHT22;1280;49.760;9.664;2023-03-04T03:15:37;2.70;67.40
2539;DHT22;1280;49.760;9.664;2023-03-04T03:18:09;2.70;67.40
2539;DHT22;1280;49.760;9.664;2023-03-04T03:20:37;2.70;67.40
2539;DHT22;1280;49.760;9.664;2023-03-04T03:23:05;2.80;67.50
2539;DHT22;1280;49.760;9.664;2023-03-04T03:25:33;2.80;67.50
2539;DHT22;1280;49.760;9.664;2023-03-04T03:28:01;2.80;67.60
2539;DHT22;1280;49.760;9.664;2023-03-04T03:30:30;2.90;67.70
2539;DHT22;1280;49.760;9.664;2023-03-04T03:32:59;2.90;67.80
2539;DHT22;1280;49.760;9.664;2023-03-04T03:35:27;2.90;67.80
2539;DHT22;1280;49.760;9.664;2023-03-04T03:38:01;3.00;67.80
2539;DHT22;1280;49.760;9.664;2023-03-04T03:40:29;3.00;67.80
2539;DHT22;1280;49.760;9.664;2023-03-04T03:42:58;3.00;67.90
2539;DHT22;1280;49.760;9.664;2023-03-04T03:45:27;3.00;68.00
2539;DHT22;1280;49.760;9.664;2023-03-04T03:47:56;3.10;67.90
2539;DHT22;1280;49.760;9.664;2023-03-04T03:50:25;3.10;68.00
2539;DHT22;1280;49.760;9.664;2023-03-04T03:52:55;3.10;68.00
2539;DHT22;1280;49.760;9.664;2023-03-04T03:55:26;3.20;68.00
2539;DHT22;1280;49.760;9.664;2023-03-04T03:57:56;3.20;68.10
2539;DHT22;1280;49.760;9.664;2023-03-04T04:00:23;3.10;68.10
2539;DHT22;1280;49.760;9.664;2023-03-04T04:02:52;3.20;68.20
2539;DHT22;1280;49.760;9.664;2023-03-04T04:05:21;3.20;68.30
2539;DHT22;1280;49.760;9.664;2023-03-04T04:07:50;3.20;68.50
2539;DHT22;1280;49.760;9.664;2023-03-04T04:10:19;3.20;68.50
2539;DHT22;1280;49.760;9.664;2023-03-04T04:12:48;3.20;68.60
2539;DHT22;1280;49.760;9.664;2023-03-04T04:15:15;3.20;68.70
2539;DHT22;1280;49.760;9.664;2023-03-04T04:17:44;3.30;68.70
2539;DHT22;1280;49.760;9.664;2023-03-04T04:20:13;3.30;68.80
2539;DHT22;1280;49.760;9.664;2023-03-04T04:22:40;3.30;68.80
2539;DHT22;1280;49.760;9.664;2023-03-04T04:25:10;3.30;68.90
2539;DHT22;1280;49.760;9.664;2023-03-04T04:27:38;3.30;68.90
2539;DHT22;1280;49.760;9.664;2023-03-04T04:30:08;3.30;69.00
2539;DHT22;1280;49.760;9.664;2023-03-04T04:32:36;3.40;69.10
2539;DHT22;1280;49.760;9.664;2023-03-04T04:35:06;3.40;69.10
2539;DHT22;1280;49.760;9.664;2023-03-04T04:37:34;3.40;69.30
2539;DHT22;1280;49.760;9.664;2023-03-04T04:40:03;3.50;69.40
2539;DHT22;1280;49.760;9.664;2023-03-04T04:42:32;3.40;69.30
2539;DHT22;1280;49.760;9.664;2023-03-04T04:45:00;3.50;69.40
2539;DHT22;1280;49.760;9.664;2023-03-04T04:47:29;3.50;69.50
2539;DHT22;1280;49.760;9.664;2023-03-04T04:49:56;3.50;69.50
2539;DHT22;1280;49.760;9.664;2023-03-04T04:52:24;3.50;69.60
2539;DHT22;1280;49.760;9.664;2023-03-04T04:54:52;3.50;69.50
2539;DHT22;1280;49.760;9.664;2023-03-04T04:57:20;3.50;69.60
2539;DHT22;1280;49.760;9.664;2023-03-04T04:59:53;3.60;69.70
2539;DHT22;1280;49.760;9.664;2023-03-04T05:02:21;3.60;69.80
2539;DHT22;1280;49.760;9.664;2023-03-04T05:04:49;3.60;69.80
2539;DHT22;1280;49.760;9.664;2023-03-04T05:07:17;3.60;69.90
2539;DHT22;1280;49.760;9.664;2023-03-04T05:09:45;3.60;69.90
2539;DHT22;1280;49.760;9.664;2023-03-04T05:12:13;3.60;70.10
2539;DHT22;1280;49.760;9.664;2023-03-04T05:14:41;3.70;70.10
2539;DHT22;1280;49.760;9.664;2023-03-04T05:17:12;3.70;70.20
2539;DHT22;1280;49.760;9.664;2023-03-04T05:19:40;3.70;70.20
2539;DHT22;1280;49.760;9.664;2023-03-04T05:22:09;3.70;70.20
2539;DHT22;1280;49.760;9.664;2023-03-04T05:24:37;3.70;70.30
2539;DHT22;1280;49.760;9.664;2023-03-04T05:27:05;3.70;70.20
2539;DHT22;1280;49.760;9.664;2023-03-04T05:29:33;3.70;70.30
2539;DHT22;1280;49.760;9.664;2023-03-04T05:32:01;3.70;70.30
2539;DHT22;1280;49.760;9.664;2023-03-04T05:34:33;3.70;70.40
2539;DHT22;1280;49.760;9.664;2023-03-04T05:37:01;3.70;70.50
2539;DHT22;1280;49.760;9.664;2023-03-04T05:39:28;3.70;70.50
2539;DHT22;1280;49.760;9.664;2023-03-04T05:41:56;3.70;70.50
2539;DHT22;1280;49.760;9.664;2023-03-04T05:44:24;3.80;70.50
2539;DHT22;1280;49.760;9.664;2023-03-04T05:46:52;3.80;70.50
2539;DHT22;1280;49.760;9.664;2023-03-04T05:49:21;3.80;70.50
2539;DHT22;1280;49.760;9.664;2023-03-04T05:51:51;3.80;70.60
2539;DHT22;1280;49.760;9.664;2023-03-04T05:54:19;3.80;70.70
2539;DHT22;1280;49.760;9.664;2023-03-04T05:56:47;3.80;70.60
2539;DHT22;1280;49.760;9.664;2023-03-04T05:59:15;3.80;70.60
2539;DHT22;1280;49.760;9.664;2023-03-04T06:01:46;3.80;70.70
2539;DHT22;1280;49.760;9.664;2023-03-04T06:04:14;3.80;70.90
2539;DHT22;1280;49.760;9.664;2023-03-04T06:06:42;3.80;70.90
2539;DHT22;1280;49.760;9.664;2023-03-04T06:09:17;3.80;71.00
2539;DHT22;1280;49.760;9.664;2023-03-04T06:11:46;3.80;71.00
2539;DHT22;1280;49.760;9.664;2023-03-04T06:14:14;3.90;71.00
2539;DHT22;1280;49.760;9.664;2023-03-04T06:16:43;3.90;71.00
2539;DHT22;1280;49.760;9.664;2023-03-04T06:19:10;3.90;71.00
2539;DHT22;1280;49.760;9.664;2023-03-04T06:21:39;3.90;71.10
2539;DHT22;1280;49.760;9.664;2023-03-04T06:24:08;3.90;71.10
2539;DHT22;1280;49.760;9.664;2023-03-04T06:26:37;3.90;71.10
2539;DHT22;1280;49.760;9.664;2023-03-04T06:29:06;3.90;71.10
2539;DHT22;1280;49.760;9.664;2023-03-04T06:31:35;3.90;71.10
2539;DHT22;1280;49.760;9.664;2023-03-04T06:34:03;3.90;71.20
2539;DHT22;1280;49.760;9.664;2023-03-04T06:36:31;3.90;71.20
2539;DHT22;1280;49.760;9.664;2023-03-04T06:39:01;4.00;71.10
2539;DHT22;1280;49.760;9.664;2023-03-04T06:41:29;4.00;71.10
2539;DHT22;1280;49.760;9.664;2023-03-04T06:43:58;4.00;71.10
2539;DHT22;1280;49.760;9.664;2023-03-04T06:46:26;4.00;71.10
2539;DHT22;1280;49.760;9.664;2023-03-04T06:48:56;4.00;71.10
2539;DHT22;1280;49.760;9.664;2023-03-04T06:51:25;4.00;71.20
2539;DHT22;1280;49.760;9.664;2023-03-04T06:53:53;4.00;71.30
2539;DHT22;1280;49.760;9.664;2023-03-04T06:56:21;4.00;71.20
2539;DHT22;1280;49.760;9.664;2023-03-04T06:58:49;4.00;71.30
2539;DHT22;1280;49.760;9.664;2023-03-04T07:01:21;4.00;71.30
2539;DHT22;1280;49.760;9.664;2023-03-04T07:03:51;4.00;71.40
2539;DHT22;1280;49.760;9.664;2023-03-04T07:06:22;4.00;71.40
2539;DHT22;1280;49.760;9.664;2023-03-04T07:08:50;4.00;71.40
2539;DHT22;1280;49.760;9.664;2023-03-04T07:11:20;4.00;71.50
2539;DHT22;1280;49.760;9.664;2023-03-04T07:13:49;4.00;71.50
2539;DHT22;1280;49.760;9.664;2023-03-04T07:16:21;4.00;71.50
2539;DHT22;1280;49.760;9.664;2023-03-04T07:18:49;4.10;71.60
2539;DHT22;1280;49.760;9.664;2023-03-04T07:21:18;4.10;71.60
2539;DHT22;1280;49.760;9.664;2023-03-04T07:23:46;4.10;71.60
2539;DHT22;1280;49.760;9.664;2023-03-04T07:26:14;4.10;71.60
2539;DHT22;1280;49.760;9.664;2023-03-04T07:28:42;4.10;71.70
2539;DHT22;1280;49.760;9.664;2023-03-04T07:31:21;4.10;71.70
2539;DHT22;1280;49.760;9.664;2023-03-04T07:33:50;4.10;71.70
2539;DHT22;1280;49.760;9.664;2023-03-04T07:36:18;4.10;71.70
2539;DHT22;1280;49.760;9.664;2023-03-04T07:38:48;4.10;71.70
2539;DHT22;1280;49.760;9.664;2023-03-04T07:41:17;4.20;71.70
2539;DHT22;1280;49.760;9.664;2023-03-04T07:43:45;4.20;71.80
2539;DHT22;1280;49.760;9.664;2023-03-04T07:46:13;4.20;71.70
2539;DHT22;1280;49.760;9.664;2023-03-04T07:48:46;4.20;71.70
2539;DHT22;1280;49.760;9.664;2023-03-04T07:51:15;4.20;71.80
2539;DHT22;1280;49.760;9.664;2023-03-04T07:53:46;4.20;71.80
2539;DHT22;1280;49.760;9.664;2023-03-04T07:56:16;4.30;71.80
2539;DHT22;1280;49.760;9.664;2023-03-04T07:58:44;4.30;71.80
2539;DHT22;1280;49.760;9.664;2023-03-04T08:01:14;4.30;71.80
2539;DHT22;1280;49.760;9.664;2023-03-04T08:03:42;4.30;71.70
2539;DHT22;1280;49.760;9.664;2023-03-04T08:06:12;4.30;71.70
2539;DHT22;1280;49.760;9.664;2023-03-04T08:08:41;4.30;71.80
2539;DHT22;1280;49.760;9.664;2023-03-04T08:11:11;4.30;71.70
2539;DHT22;1280;49.760;9.664;2023-03-04T08:13:40;4.30;71.80
2539;DHT22;1280;49.760;9.664;2023-03-04T08:16:09;4.40;71.80
2539;DHT22;1280;49.760;9.664;2023-03-04T08:18:38;4.40;71.90
2539;DHT22;1280;49.760;9.664;2023-03-04T08:21:08;4.40;71.90
2539;DHT22;1280;49.760;9.664;2023-03-04T08:23:57;4.40;71.90
2539;DHT22;1280;49.760;9.664;2023-03-04T08:26:29;4.40;71.90
2539;DHT22;1280;49.760;9.664;2023-03-04T08:29:00;4.40;71.80
2539;DHT22;1280;49.760;9.664;2023-03-04T08:31:30;4.40;71.90
2539;DHT22;1280;49.760;9.664;2023-03-04T08:33:58;4.40;71.90
2539;DHT22;1280;49.760;9.664;2023-03-04T08:36:26;4.40;71.90
2539;DHT22;1280;49.760;9.664;2023-03-04T08:38:54;4.40;71.90
2539;DHT22;1280;49.760;9.664;2023-03-04T08:41:38;4.50;72.00
2539;DHT22;1280;49.760;9.664;2023-03-04T08:44:06;4.50;72.00
2539;DHT22;1280;49.760;9.664;2023-03-04T08:46:36;4.50;72.00
2539;DHT22;1280;49.760;9.664;2023-03-04T08:49:05;4.50;72.00
2539;DHT22;1280;49.760;9.664;2023-03-04T08:51:34;4.50;72.00
2539;DHT22;1280;49.760;9.664;2023-03-04T08:54:02;4.50;72.00
2539;DHT22;1280;49.760;9.664;2023-03-04T08:56:31;4.50;72.00
2539;DHT22;1280;49.760;9.664;2023-03-04T08:59:03;4.50;72.00
2539;DHT22;1280;49.760;9.664;2023-03-04T09:01:31;4.60;72.10
2539;DHT22;1280;49.760;9.664;2023-03-04T09:03:59;4.50;72.00
2539;DHT22;1280;49.760;9.664;2023-03-04T09:06:27;4.50;72.00
2539;DHT22;1280;49.760;9.664;2023-03-04T09:08:55;4.60;72.10
2539;DHT22;1280;49.760;9.664;2023-03-04T09:11:26;4.60;72.10
2539;DHT22;1280;49.760;9.664;2023-03-04T09:14:07;4.60;72.10
2539;DHT22;1280;49.760;9.664;2023-03-04T09:16:42;4.60;72.20
2539;DHT22;1280;49.760;9.664;2023-03-04T09:19:12;4.60;72.30
2539;DHT22;1280;49.760;9.664;2023-03-04T09:21:40;4.70;72.30
2539;DHT22;1280;49.760;9.664;2023-03-04T09:24:08;4.70;72.40
2539;DHT22;1280;49.760;9.664;2023-03-04T09:26:35;4.80;72.40
2539;DHT22;1280;49.760;9.664;2023-03-04T09:29:05;4.80;72.40
2539;DHT22;1280;49.760;9.664;2023-03-04T09:31:33;4.90;72.50
2539;DHT22;1280;49.760;9.664;2023-03-04T09:34:01;5.00;72.50
2539;DHT22;1280;49.760;9.664;2023-03-04T09:36:29;5.00;72.50
2539;DHT22;1280;49.760;9.664;2023-03-04T09:38:58;5.10;72.50
2539;DHT22;1280;49.760;9.664;2023-03-04T09:41:34;5.10;72.50
2539;DHT22;1280;49.760;9.664;2023-03-04T09:44:14;5.20;72.40
2539;DHT22;1280;49.760;9.664;2023-03-04T09:46:43;5.20;72.30
2539;DHT22;1280;49.760;9.664;2023-03-04T09:49:12;5.10;72.30
2539;DHT22;1280;49.760;9.664;2023-03-04T09:51:47;5.10;72.30
2539;DHT22;1280;49.760;9.664;2023-03-04T09:54:24;5.10;72.30
2539;DHT22;1280;49.760;9.664;2023-03-04T09:56:59;5.10;72.20
2539;DHT22;1280;49.760;9.664;2023-03-04T09:59:34;5.10;72.10
2539;DHT22;1280;49.760;9.664;2023-03-04T10:02:17;5.10;72.20
2539;DHT22;1280;49.760;9.664;2023-03-04T10:04:48;5.10;72.20
2539;DHT22;1280;49.760;9.664;2023-03-04T10:07:21;5.10;72.20
2539;DHT22;1280;49.760;9.664;2023-03-04T10:09:54;5.10;72.20
2539;DHT22;1280;49.760;9.664;2023-03-04T10:12:24;5.10;72.30
2539;DHT22;1280;49.760;9.664;2023-03-04T10:15:00;5.20;72.20
2539;DHT22;1280;49.760;9.664;2023-03-04T10:17:34;5.10;72.10
2539;DHT22;1280;49.760;9.664;2023-03-04T10:20:08;5.10;72.10
2539;DHT22;1280;49.760;9.664;2023-03-04T10:22:43;5.00;72.10
2539;DHT22;1280;49.760;9.664;2023-03-04T10:25:17;5.10;72.20
2539;DHT22;1280;49.760;9.664;2023-03-04T10:27:50;5.10;72.30
2539;DHT22;1280;49.760;9.664;2023-03-04T10:30:31;5.20;72.20
2539;DHT22;1280;49.760;9.664;2023-03-04T10:33:08;5.30;72.10
2539;DHT22;1280;49.760;9.664;2023-03-04T10:35:37;5.30;72.30
2539;DHT22;1280;49.760;9.664;2023-03-04T10:38:06;5.40;72.40
2539;DHT22;1280;49.760;9.664;2023-03-04T10:40:38;5.40;72.30
2539;DHT22;1280;49.760;9.664;2023-03-04T10:43:13;5.50;72.10
2539;DHT22;1280;49.760;9.664;2023-03-04T10:45:44;5.50;72.10
2539;DHT22;1280;49.760;9.664;2023-03-04T10:48:22;5.50;72.00
2539;DHT22;1280;49.760;9.664;2023-03-04T10:50:50;5.50;72.00
2539;DHT22;1280;49.760;9.664;2023-03-04T10:53:29;5.50;72.00
2539;DHT22;1280;49.760;9.664;2023-03-04T10:55:59;5.50;71.90
2539;DHT22;1280;49.760;9.664;2023-03-04T10:58:28;5.50;72.00
2539;DHT22;1280;49.760;9.664;2023-03-04T11:01:03;5.60;72.00
2539;DHT22;1280;49.760;9.664;2023-03-04T11:03:53;5.60;72.00
2539;DHT22;1280;49.760;9.664;2023-03-04T11:06:22;5.60;71.90
2539;DHT22;1280;49.760;9.664;2023-03-04T11:08:54;5.50;71.70
2539;DHT22;1280;49.760;9.664;2023-03-04T11:11:24;5.50;71.90
2539;DHT22;1280;49.760;9.664;2023-03-04T11:13:58;5.50;72.00
2539;DHT22;1280;49.760;9.664;2023-03-04T11:16:30;5.50;72.00
2539;DHT22;1280;49.760;9.664;2023-03-04T11:19:03;5.60;72.00
2539;DHT22;1280;49.760;9.664;2023-03-04T11:21:36;5.60;71.90
2539;DHT22;1280;49.760;9.664;2023-03-04T11:24:11;5.60;71.90
2539;DHT22;1280;49.760;9.664;2023-03-04T11:26:58;5.60;71.80
2539;DHT22;1280;49.760;9.664;2023-03-04T11:29:31;5.70;72.10
2539;DHT22;1280;49.760;9.664;2023-03-04T11:32:06;5.80;72.20
2539;DHT22;1280;49.760;9.664;2023-03-04T11:34:40;5.90;72.10
2539;DHT22;1280;49.760;9.664;2023-03-04T11:37:15;6.00;71.90
2539;DHT22;1280;49.760;9.664;2023-03-04T11:39:48;5.90;71.30
2539;DHT22;1280;49.760;9.664;2023-03-04T11:42:24;6.00;71.30
2539;DHT22;1280;49.760;9.664;2023-03-04T11:44:55;5.90;71.20
2539;DHT22;1280;49.760;9.664;2023-03-04T11:47:42;5.80;70.80
2539;DHT22;1280;49.760;9.664;2023-03-04T11:50:28;5.80;71.40
2539;DHT22;1280;49.760;9.664;2023-03-04T11:53:32;5.80;71.20
2539;DHT22;1280;49.760;9.664;2023-03-04T11:56:15;5.70;71.10
2539;DHT22;1280;49.760;9.664;2023-03-04T11:59:03;5.80;71.10
2539;DHT22;1280;49.760;9.664;2023-03-04T12:01:40;5.90;71.10
2539;DHT22;1280;49.760;9.664;2023-03-04T12:04:43;5.90;71.00
2539;DHT22;1280;49.760;9.664;2023-03-04T12:07:23;6.00;70.80
2539;DHT22;1280;49.760;9.664;2023-03-04T12:10:05;6.00;70.80
2539;DHT22;1280;49.760;9.664;2023-03-04T12:12:49;6.00;70.80
2539;DHT22;1280;49.760;9.664;2023-03-04T12:15:23;6.00;70.80
2539;DHT22;1280;49.760;9.664;2023-03-04T12:18:11;6.10;71.00
2539;DHT22;1280;49.760;9.664;2023-03-04T12:21:00;6.10;70.80
2539;DHT22;1280;49.760;9.664;2023-03-04T12:23:47;6.10;70.60
2539;DHT22;1280;49.760;9.664;2023-03-04T12:26:24;6.10;70.60
2539;DHT22;1280;49.760;9.664;2023-03-04T12:29:00;6.10;70.50
2539;DHT22;1280;49.760;9.664;2023-03-04T12:31:36;6.10;70.50
2539;DHT22;1280;49.760;9.664;2023-03-04T12:34:37;6.20;70.50
2539;DHT22;1280;49.760;9.664;2023-03-04T12:40:26;6.20;70.60
2539;DHT22;1280;49.760;9.664;2023-03-04T12:43:07;6.30;70.50
2539;DHT22;1280;49.760;9.664;2023-03-04T12:45:43;6.40;70.50
2539;DHT22;1280;49.760;9.664;2023-03-04T12:48:25;6.40;70.40
2539;DHT22;1280;49.760;9.664;2023-03-04T12:51:04;6.40;70.20
2539;DHT22;1280;49.760;9.664;2023-03-04T12:53:40;6.40;70.00
2539;DHT22;1280;49.760;9.664;2023-03-04T12:56:20;6.40;70.10
2539;DHT22;1280;49.760;9.664;2023-03-04T12:58:49;6.40;70.10
2539;DHT22;1280;49.760;9.664;2023-03-04T13:01:23;6.40;70.10
2539;DHT22;1280;49.760;9.664;2023-03-04T13:03:57;6.40;70.00
2539;DHT22;1280;49.760;9.664;2023-03-04T13:06:36;6.30;69.80
2539;DHT22;1280;49.760;9.664;2023-03-04T13:09:14;6.30;70.00
2539;DHT22;1280;49.760;9.664;2023-03-04T13:11:53;6.30;70.10
2539;DHT22;1280;49.760;9.664;2023-03-04T13:14:27;6.40;70.20
2539;DHT22;1280;49.760;9.664;2023-03-04T13:17:01;6.40;70.10
2539;DHT22;1280;49.760;9.664;2023-03-04T13:19:48;6.40;70.10
2539;DHT22;1280;49.760;9.664;2023-03-04T13:22:44;6.50;70.10
2539;DHT22;1280;49.760;9.664;2023-03-04T13:25:32;6.50;69.90
2539;DHT22;1280;49.760;9.664;2023-03-04T13:28:22;6.50;69.90
2539;DHT22;1280;49.760;9.664;2023-03-04T13:31:16;6.50;69.90
2539;DHT22;1280;49.760;9.664;2023-03-04T13:34:39;6.50;69.90
2539;DHT22;1280;49.760;9.664;2023-03-04T13:36:56;6.60;69.80
2539;DHT22;1280;49.760;9.664;2023-03-04T13:39:33;6.60;69.90
2539;DHT22;1280;49.760;9.664;2023-03-04T13:42:04;6.60;69.80
2539;DHT22;1280;49.760;9.664;2023-03-04T13:44:57;6.60;69.90
2539;DHT22;1280;49.760;9.664;2023-03-04T13:47:31;6.70;69.80
2539;DHT22;1280;49.760;9.664;2023-03-04T13:50:32;6.70;69.80
2539;DHT22;1280;49.760;9.664;2023-03-04T13:53:32;6.80;69.80
2539;DHT22;1280;49.760;9.664;2023-03-04T13:56:04;6.80;69.80
2539;DHT22;1280;49.760;9.664;2023-03-04T13:58:34;6.90;69.90
2539;DHT22;1280;49.760;9.664;2023-03-04T14:01:23;6.90;69.90
2539;DHT22;1280;49.760;9.664;2023-03-04T14:03:53;7.00;69.90
2539;DHT22;1280;49.760;9.664;2023-03-04T14:06:23;7.10;69.70
2539;DHT22;1280;49.760;9.664;2023-03-04T14:08:54;7.10;69.70
2539;DHT22;1280;49.760;9.664;2023-03-04T14:11:28;7.10;69.70
2539;DHT22;1280;49.760;9.664;2023-03-04T14:13:58;7.10;69.60
2539;DHT22;1280;49.760;9.664;2023-03-04T14:16:28;7.20;69.60
2539;DHT22;1280;49.760;9.664;2023-03-04T14:19:01;7.20;69.60
2539;DHT22;1280;49.760;9.664;2023-03-04T14:21:30;7.20;69.50
2539;DHT22;1280;49.760;9.664;2023-03-04T14:24:12;7.20;69.40
2539;DHT22;1280;49.760;9.664;2023-03-04T14:26:42;7.10;69.50
2539;DHT22;1280;49.760;9.664;2023-03-04T14:29:24;7.20;69.50
2539;DHT22;1280;49.760;9.664;2023-03-04T14:31:55;7.20;69.50
2539;DHT22;1280;49.760;9.664;2023-03-04T14:34:25;7.20;69.40
2539;DHT22;1280;49.760;9.664;2023-03-04T14:36:55;7.20;69.40
2539;DHT22;1280;49.760;9.664;2023-03-04T14:39:26;7.20;69.30
2539;DHT22;1280;49.760;9.664;2023-03-04T14:42:03;7.20;69.20
2539;DHT22;1280;49.760;9.664;2023-03-04T14:44:38;7.20;69.30
2539;DHT22;1280;49.760;9.664;2023-03-04T14:47:15;7.20;69.30
2539;DHT22;1280;49.760;9.664;2023-03-04T14:49:45;7.10;69.30
2539;DHT22;1280;49.760;9.664;2023-03-04T14:52:30;7.10;69.20
2539;DHT22;1280;49.760;9.664;2023-03-04T14:55:16;7.10;69.20
2539;DHT22;1280;49.760;9.664;2023-03-04T14:57:46;7.10;69.20
2539;DHT22;1280;49.760;9.664;2023-03-04T15:00:29;7.20;69.20
2539;DHT22;1280;49.760;9.664;2023-03-04T15:03:00;7.20;69.20
2539;DHT22;1280;49.760;9.664;2023-03-04T15:05:30;7.10;69.10
2539;DHT22;1280;49.760;9.664;2023-03-04T15:08:00;7.10;69.10
2539;DHT22;1280;49.760;9.664;2023-03-04T15:10:32;7.10;69.00
2539;DHT22;1280;49.760;9.664;2023-03-04T15:13:02;7.10;69.00
2539;DHT22;1280;49.760;9.664;2023-03-04T15:15:40;7.00;69.10
2539;DHT22;1280;49.760;9.664;2023-03-04T15:18:21;7.00;69.10
2539;DHT22;1280;49.760;9.664;2023-03-04T15:20:53;7.00;69.10
2539;DHT22;1280;49.760;9.664;2023-03-04T15:23:21;7.00;69.30
2539;DHT22;1280;49.760;9.664;2023-03-04T15:25:52;6.90;69.30
2539;DHT22;1280;49.760;9.664;2023-03-04T15:28:21;6.90;69.30
2539;DHT22;1280;49.760;9.664;2023-03-04T15:30:50;6.90;69.30
2539;DHT22;1280;49.760;9.664;2023-03-04T15:33:19;6.90;69.30
2539;DHT22;1280;49.760;9.664;2023-03-04T15:35:52;6.90;69.30
2539;DHT22;1280;49.760;9.664;2023-03-04T15:38:22;6.90;69.40
2539;DHT22;1280;49.760;9.664;2023-03-04T15:40:53;6.80;69.40
2539;DHT22;1280;49.760;9.664;2023-03-04T15:43:22;6.90;69.50
2539;DHT22;1280;49.760;9.664;2023-03-04T15:45:51;6.80;69.40
2539;DHT22;1280;49.760;9.664;2023-03-04T15:48:20;6.80;69.40
2539;DHT22;1280;49.760;9.664;2023-03-04T15:50:49;6.80;69.50
2539;DHT22;1280;49.760;9.664;2023-03-04T15:53:24;6.70;69.50
2539;DHT22;1280;49.760;9.664;2023-03-04T15:55:54;6.70;69.60
2539;DHT22;1280;49.760;9.664;2023-03-04T15:58:22;6.70;69.60
2539;DHT22;1280;49.760;9.664;2023-03-04T16:00:50;6.60;69.60
2539;DHT22;1280;49.760;9.664;2023-03-04T16:03:19;6.60;69.70
2539;DHT22;1280;49.760;9.664;2023-03-04T16:05:49;6.60;69.70
2539;DHT22;1280;49.760;9.664;2023-03-04T16:08:20;6.60;69.60
2539;DHT22;1280;49.760;9.664;2023-03-04T16:10:52;6.60;69.70
2539;DHT22;1280;49.760;9.664;2023-03-04T16:13:23;6.60;69.80
2539;DHT22;1280;49.760;9.664;2023-03-04T16:15:51;6.70;69.90
2539;DHT22;1280;49.760;9.664;2023-03-04T16:18:20;6.70;69.80
2539;DHT22;1280;49.760;9.664;2023-03-04T16:20:50;6.70;69.70
2539;DHT22;1280;49.760;9.664;2023-03-04T16:23:20;6.70;69.70
2539;DHT22;1280;49.760;9.664;2023-03-04T16:25:50;6.70;69.70
2539;DHT22;1280;49.760;9.664;2023-03-04T16:28:19;6.60;69.60
2539;DHT22;1280;49.760;9.664;2023-03-04T16:30:48;6.60;69.60
2539;DHT22;1280;49.760;9.664;2023-03-04T16:33:17;6.50;69.60
2539;DHT22;1280;49.760;9.664;2023-03-04T16:35:45;6.40;69.60
2539;DHT22;1280;49.760;9.664;2023-03-04T16:38:27;6.40;69.60
2539;DHT22;1280;49.760;9.664;2023-03-04T16:40:59;6.40;69.70
2539;DHT22;1280;49.760;9.664;2023-03-04T16:43:29;6.30;69.80
2539;DHT22;1280;49.760;9.664;2023-03-04T16:45:58;6.30;69.80
2539;DHT22;1280;49.760;9.664;2023-03-04T16:48:26;6.30;69.80
2539;DHT22;1280;49.760;9.664;2023-03-04T16:50:54;6.30;69.90